sensor_id;sensor_type;location;lat;lon;timestamp;temperature;humidity
18412;DHT22;27097;51.738;19.472;2023-07-31T00:00:21;25.80;56.90
18412;DHT22;27097;51.738;19.472;2023-07-31T00:02:47;25.80;57.10
18412;DHT22;27097;51.738;19.472;2023-07-31T00:05:15;25.80;57.10
18412;DHT22;27097;51.738;19.472;2023-07-31T00:07:42;25.80;57.20
18412;DHT22;27097;51.738;19.472;2023-07-31T00:10:10;25.80;57.30
18412;DHT22;27097;51.738;19.472;2023-07-31T00:12:38;25.80;57.20
18412;DHT22;27097;51.738;19.472;2023-07-31T00:15:06;25.80;57.30
18412;DHT22;27097;51.738;19.472;2023-07-31T00:17:32;25.80;57.50
18412;DHT22;27097;51.738;19.472;2023-07-31T00:19:59;25.80;58.10
18412;DHT22;27097;51.738;19.472;2023-07-31T00:22:26;25.80;57.50
18412;DHT22;27097;51.738;19.472;2023-07-31T00:24:53;25.80;57.50
18412;DHT22;27097;51.738;19.472;2023-07-31T00:27:20;25.80;57.60
18412;DHT22;27097;51.738;19.472;2023-07-31T00:29:48;25.70;57.50
18412;DHT22;27097;51.738;19.472;2023-07-31T00:32:15;25.80;57.70
18412;DHT22;27097;51.738;19.472;2023-07-31T00:34:41;25.70;57.80
18412;DHT22;27097;51.738;19.472;2023-07-31T00:37:08;25.70;57.80
18412;DHT22;27097;51.738;19.472;2023-07-31T00:39:35;25.70;57.80
18412;DHT22;27097;51.738;19.472;2023-07-31T00:42:03;25.70;57.80
18412;DHT22;27097;51.738;19.472;2023-07-31T00:44:30;25.70;58.10
18412;DHT22;27097;51.738;19.472;2023-07-31T00:46:58;25.70;58.10
18412;DHT22;27097;51.738;19.472;2023-07-31T00:49:25;25.70;58.20
18412;DHT22;27097;51.738;19.472;2023-07-31T00:51:53;25.70;58.40
18412;DHT22;27097;51.738;19.472;2023-07-31T00:54:20;25.70;58.40
18412;DHT22;27097;51.738;19.472;2023-07-31T00:56:47;25.70;58.40
18412;DHT22;27097;51.738;19.472;2023-07-31T00:59:14;25.70;58.40
18412;DHT22;27097;51.738;19.472;2023-07-31T01:01:41;25.70;59.10
18412;DHT22;27097;51.738;19.472;2023-07-31T01:04:09;25.70;58.50
18412;DHT22;27097;51.738;19.472;2023-07-31T01:06:40;25.60;58.50
18412;DHT22;27097;51.738;19.472;2023-07-31T01:09:19;25.60;58.60
18412;DHT22;27097;51.738;19.472;2023-07-31T01:11:50;25.60;58.60
18412;DHT22;27097;51.738;19.472;2023-07-31T01:14:18;25.60;58.70
18412;DHT22;27097;51.738;19.472;2023-07-31T01:16:45;25.60;58.70
18412;DHT22;27097;51.738;19.472;2023-07-31T01:19:14;25.60;58.70
18412;DHT22;27097;51.738;19.472;2023-07-31T01:22:03;25.60;58.70
18412;DHT22;27097;51.738;19.472;2023-07-31T01:24:42;25.60;58.80
18412;DHT22;27097;51.738;19.472;2023-07-31T01:27:23;25.60;58.80
18412;DHT22;27097;51.738;19.472;2023-07-31T01:29:58;25.60;58.80
18412;DHT22;27097;51.738;19.472;2023-07-31T01:32:28;25.60;58.90
18412;DHT22;27097;51.738;19.472;2023-07-31T01:34:57;25.60;59.00
18412;DHT22;27097;51.738;19.472;2023-07-31T01:37:28;25.60;58.90
18412;DHT22;27097;51.738;19.472;2023-07-31T01:39:55;25.60;59.00
18412;DHT22;27097;51.738;19.472;2023-07-31T01:42:23;25.50;59.00
18412;DHT22;27097;51.738;19.472;2023-07-31T01:44:50;25.50;59.00
18412;DHT22;27097;51.738;19.472;2023-07-31T01:47:17;25.50;59.10
18412;DHT22;27097;51.738;19.472;2023-07-31T01:49:44;25.50;59.10
18412;DHT22;27097;51.738;19.472;2023-07-31T01:52:11;25.50;59.10
18412;DHT22;27097;51.738;19.472;2023-07-31T01:54:37;25.50;59.10
18412;DHT22;27097;51.738;19.472;2023-07-31T01:57:05;25.50;59.10
18412;DHT22;27097;51.738;19.472;2023-07-31T01:59:33;25.50;59.10
18412;DHT22;27097;51.738;19.472;2023-07-31T02:02:00;25.50;59.10
18412;DHT22;27097;51.738;19.472;2023-07-31T02:04:26;25.50;59.10
18412;DHT22;27097;51.738;19.472;2023-07-31T02:06:53;25.50;59.00
18412;DHT22;27097;51.738;19.472;2023-07-31T02:09:20;25.50;59.00
18412;DHT22;27097;51.738;19.472;2023-07-31T02:11:47;25.50;59.00
18412;DHT22;27097;51.738;19.472;2023-07-31T02:14:14;25.50;59.10
18412;DHT22;27097;51.738;19.472;2023-07-31T02:16:42;25.50;59.00
18412;DHT22;27097;51.738;19.472;2023-07-31T02:19:09;25.50;59.00
18412;DHT22;27097;51.738;19.472;2023-07-31T02:21:36;25.40;58.90
18412;DHT22;27097;51.738;19.472;2023-07-31T02:24:03;25.40;59.10
18412;DHT22;27097;51.738;19.472;2023-07-31T02:26:30;25.40;59.10
18412;DHT22;27097;51.738;19.472;2023-07-31T02:28:56;25.40;59.00
18412;DHT22;27097;51.738;19.472;2023-07-31T02:31:23;25.40;59.10
18412;DHT22;27097;51.738;19.472;2023-07-31T02:33:51;25.40;59.00
18412;DHT22;27097;51.738;19.472;2023-07-31T02:36:18;25.40;59.10
18412;DHT22;27097;51.738;19.472;2023-07-31T02:38:45;25.40;59.10
18412;DHT22;27097;51.738;19.472;2023-07-31T02:41:12;25.40;59.10
18412;DHT22;27097;51.738;19.472;2023-07-31T02:43:38;25.40;59.00
18412;DHT22;27097;51.738;19.472;2023-07-31T02:46:05;25.40;59.10
18412;DHT22;27097;51.738;19.472;2023-07-31T02:48:32;25.40;59.10
18412;DHT22;27097;51.738;19.472;2023-07-31T02:51:00;25.40;59.10
18412;DHT22;27097;51.738;19.472;2023-07-31T02:53:27;25.40;59.00
18412;DHT22;27097;51.738;19.472;2023-07-31T02:55:54;25.40;59.10
18412;DHT22;27097;51.738;19.472;2023-07-31T02:58:20;25.40;59.00
18412;DHT22;27097;51.738;19.472;2023-07-31T03:00:47;25.40;59.10
18412;DHT22;27097;51.738;19.472;2023-07-31T03:03:14;25.40;59.00
18412;DHT22;27097;51.738;19.472;2023-07-31T03:05:41;25.40;59.10
18412;DHT22;27097;51.738;19.472;2023-07-31T03:08:09;25.40;59.00
18412;DHT22;27097;51.738;19.472;2023-07-31T03:10:36;25.50;58.90
18412;DHT22;27097;51.738;19.472;2023-07-31T03:13:03;25.50;59.00
18412;DHT22;27097;51.738;19.472;2023-07-31T03:15:30;25.50;59.00
18412;DHT22;27097;51.738;19.472;2023-07-31T03:17:56;25.50;59.00
18412;DHT22;27097;51.738;19.472;2023-07-31T03:20:23;25.50;59.00
18412;DHT22;27097;51.738;19.472;2023-07-31T03:22:50;25.50;59.10
18412;DHT22;27097;51.738;19.472;2023-07-31T03:25:18;25.50;59.00
18412;DHT22;27097;51.738;19.472;2023-07-31T03:27:45;25.50;59.00
18412;DHT22;27097;51.738;19.472;2023-07-31T03:30:12;25.50;59.10
18412;DHT22;27097;51.738;19.472;2023-07-31T03:32:39;25.50;59.00
18412;DHT22;27097;51.738;19.472;2023-07-31T03:35:06;25.50;59.80
18412;DHT22;27097;51.738;19.472;2023-07-31T03:37:33;25.50;59.00
18412;DHT22;27097;51.738;19.472;2023-07-31T03:39:59;25.40;59.60
18412;DHT22;27097;51.738;19.472;2023-07-31T03:42:27;25.40;58.90
18412;DHT22;27097;51.738;19.472;2023-07-31T03:44:54;25.40;59.10
18412;DHT22;27097;51.738;19.472;2023-07-31T03:47:21;25.40;59.10
18412;DHT22;27097;51.738;19.472;2023-07-31T03:49:48;25.40;59.00
18412;DHT22;27097;51.738;19.472;2023-07-31T03:52:15;25.40;59.10
18412;DHT22;27097;51.738;19.472;2023-07-31T03:54:41;25.40;59.00
18412;DHT22;27097;51.738;19.472;2023-07-31T03:57:10;25.40;59.10
18412;DHT22;27097;51.738;19.472;2023-07-31T03:59:38;25.40;59.10
18412;DHT22;27097;51.738;19.472;2023-07-31T04:02:05;25.40;58.90
18412;DHT22;27097;51.738;19.472;2023-07-31T04:04:32;25.40;59.00
18412;DHT22;27097;51.738;19.472;2023-07-31T04:06:58;25.40;58.80
18412;DHT22;27097;51.738;19.472;2023-07-31T04:09:25;25.40;58.80
18412;DHT22;27097;51.738;19.472;2023-07-31T04:11:52;25.40;58.70
18412;DHT22;27097;51.738;19.472;2023-07-31T04:14:19;25.50;59.00
18412;DHT22;27097;51.738;19.472;2023-07-31T04:16:47;25.50;58.90
18412;DHT22;27097;51.738;19.472;2023-07-31T04:19:14;25.40;58.90
18412;DHT22;27097;51.738;19.472;2023-07-31T04:21:42;25.40;58.90
18412;DHT22;27097;51.738;19.472;2023-07-31T04:24:08;25.40;58.80
18412;DHT22;27097;51.738;19.472;2023-07-31T04:26:35;25.50;59.40
18412;DHT22;27097;51.738;19.472;2023-07-31T04:29:02;25.40;58.80
18412;DHT22;27097;51.738;19.472;2023-07-31T04:31:29;25.50;58.70
18412;DHT22;27097;51.738;19.472;2023-07-31T04:33:57;25.50;58.50
18412;DHT22;27097;51.738;19.472;2023-07-31T04:36:24;25.50;59.20
18412;DHT22;27097;51.738;19.472;2023-07-31T04:38:51;25.50;58.50
18412;DHT22;27097;51.738;19.472;2023-07-31T04:41:18;25.50;58.60
18412;DHT22;27097;51.738;19.472;2023-07-31T04:43:44;25.50;59.20
18412;DHT22;27097;51.738;19.472;2023-07-31T04:46:11;25.50;58.50
18412;DHT22;27097;51.738;19.472;2023-07-31T04:48:38;25.50;58.60
18412;DHT22;27097;51.738;19.472;2023-07-31T04:51:06;25.50;58.20
18412;DHT22;27097;51.738;19.472;2023-07-31T04:53:33;25.50;58.30
18412;DHT22;27097;51.738;19.472;2023-07-31T04:55:59;25.50;58.40
18412;DHT22;27097;51.738;19.472;2023-07-31T04:58:26;25.50;58.40
18412;DHT22;27097;51.738;19.472;2023-07-31T05:00:53;25.40;58.30
18412;DHT22;27097;51.738;19.472;2023-07-31T05:03:20;25.50;58.40
18412;DHT22;27097;51.738;19.472;2023-07-31T05:05:47;25.50;58.50
18412;DHT22;27097;51.738;19.472;2023-07-31T05:08:16;25.50;58.30
18412;DHT22;27097;51.738;19.472;2023-07-31T05:10:43;25.40;58.20
18412;DHT22;27097;51.738;19.472;2023-07-31T05:13:10;25.40;58.00
18412;DHT22;27097;51.738;19.472;2023-07-31T05:15:37;25.40;58.40
18412;DHT22;27097;51.738;19.472;2023-07-31T05:18:03;25.40;58.20
18412;DHT22;27097;51.738;19.472;2023-07-31T05:20:30;25.40;58.10
18412;DHT22;27097;51.738;19.472;2023-07-31T05:22:57;25.50;58.10
18412;DHT22;27097;51.738;19.472;2023-07-31T05:25:25;25.50;58.20
18412;DHT22;27097;51.738;19.472;2023-07-31T05:27:52;25.50;58.10
18412;DHT22;27097;51.738;19.472;2023-07-31T05:30:19;25.50;58.00
18412;DHT22;27097;51.738;19.472;2023-07-31T05:32:47;25.60;58.00
18412;DHT22;27097;51.738;19.472;2023-07-31T05:35:13;25.60;57.80
18412;DHT22;27097;51.738;19.472;2023-07-31T05:37:40;25.60;57.90
18412;DHT22;27097;51.738;19.472;2023-07-31T05:40:08;25.60;57.90
18412;DHT22;27097;51.738;19.472;2023-07-31T05:42:36;25.70;57.70
18412;DHT22;27097;51.738;19.472;2023-07-31T05:45:05;25.70;57.60
18412;DHT22;27097;51.738;19.472;2023-07-31T05:47:32;25.70;57.40
18412;DHT22;27097;51.738;19.472;2023-07-31T05:49:59;25.70;57.40
18412;DHT22;27097;51.738;19.472;2023-07-31T05:52:25;25.70;57.50
18412;DHT22;27097;51.738;19.472;2023-07-31T05:54:54;25.70;57.20
18412;DHT22;27097;51.738;19.472;2023-07-31T05:57:21;25.70;57.30
18412;DHT22;27097;51.738;19.472;2023-07-31T05:59:49;25.70;57.40
18412;DHT22;27097;51.738;19.472;2023-07-31T06:02:16;25.70;57.30
18412;DHT22;27097;51.738;19.472;2023-07-31T06:04:42;25.80;57.40
18412;DHT22;27097;51.738;19.472;2023-07-31T06:07:09;25.80;57.20
18412;DHT22;27097;51.738;19.472;2023-07-31T06:09:37;25.80;57.20
18412;DHT22;27097;51.738;19.472;2023-07-31T06:12:04;25.90;57.10
18412;DHT22;27097;51.738;19.472;2023-07-31T06:14:31;25.90;57.10
18412;DHT22;27097;51.738;19.472;2023-07-31T06:16:59;25.90;56.90
18412;DHT22;27097;51.738;19.472;2023-07-31T06:19:26;25.90;56.80
18412;DHT22;27097;51.738;19.472;2023-07-31T06:21:53;25.90;56.70
18412;DHT22;27097;51.738;19.472;2023-07-31T06:24:20;26.00;56.50
18412;DHT22;27097;51.738;19.472;2023-07-31T06:26:47;26.00;56.60
18412;DHT22;27097;51.738;19.472;2023-07-31T06:29:14;26.00;56.40
18412;DHT22;27097;51.738;19.472;2023-07-31T06:31:41;26.10;57.10
18412;DHT22;27097;51.738;19.472;2023-07-31T06:34:09;26.10;56.30
18412;DHT22;27097;51.738;19.472;2023-07-31T06:36:36;26.10;56.30
18412;DHT22;27097;51.738;19.472;2023-07-31T06:39:03;26.10;56.20
18412;DHT22;27097;51.738;19.472;2023-07-31T06:41:30;26.10;55.90
18412;DHT22;27097;51.738;19.472;2023-07-31T06:43:57;26.10;56.20
18412;DHT22;27097;51.738;19.472;2023-07-31T06:46:23;26.20;56.10
18412;DHT22;27097;51.738;19.472;2023-07-31T06:48:50;26.10;55.80
18412;DHT22;27097;51.738;19.472;2023-07-31T06:51:18;26.20;55.90
18412;DHT22;27097;51.738;19.472;2023-07-31T06:53:45;26.20;55.70
18412;DHT22;27097;51.738;19.472;2023-07-31T06:56:12;26.20;56.10
18412;DHT22;27097;51.738;19.472;2023-07-31T06:58:39;26.20;55.60
18412;DHT22;27097;51.738;19.472;2023-07-31T07:01:06;26.20;55.20
18412;DHT22;27097;51.738;19.472;2023-07-31T07:03:32;26.30;55.50
18412;DHT22;27097;51.738;19.472;2023-07-31T07:05:59;26.30;55.40
18412;DHT22;27097;51.738;19.472;2023-07-31T07:08:27;26.30;55.40
18412;DHT22;27097;51.738;19.472;2023-07-31T07:10:54;26.30;55.50
18412;DHT22;27097;51.738;19.472;2023-07-31T07:13:21;26.30;55.80
18412;DHT22;27097;51.738;19.472;2023-07-31T07:15:49;26.30;55.90
18412;DHT22;27097;51.738;19.472;2023-07-31T07:18:16;26.30;56.20
18412;DHT22;27097;51.738;19.472;2023-07-31T07:20:46;26.30;56.90
18412;DHT22;27097;51.738;19.472;2023-07-31T07:23:14;26.30;56.60
18412;DHT22;27097;51.738;19.472;2023-07-31T07:25:44;26.30;56.30
18412;DHT22;27097;51.738;19.472;2023-07-31T07:28:11;26.40;56.40
18412;DHT22;27097;51.738;19.472;2023-07-31T07:30:39;26.40;56.20
18412;DHT22;27097;51.738;19.472;2023-07-31T07:33:06;26.40;56.20
18412;DHT22;27097;51.738;19.472;2023-07-31T07:35:33;26.40;55.90
18412;DHT22;27097;51.738;19.472;2023-07-31T07:38:01;26.40;55.50
18412;DHT22;27097;51.738;19.472;2023-07-31T07:40:28;26.40;55.40
18412;DHT22;27097;51.738;19.472;2023-07-31T07:42:59;26.40;55.50
18412;DHT22;27097;51.738;19.472;2023-07-31T07:45:26;26.50;55.00
18412;DHT22;27097;51.738;19.472;2023-07-31T07:47:53;26.50;55.10
18412;DHT22;27097;51.738;19.472;2023-07-31T07:50:20;26.50;55.30
18412;DHT22;27097;51.738;19.472;2023-07-31T07:52:49;26.50;54.70
18412;DHT22;27097;51.738;19.472;2023-07-31T07:55:16;26.50;55.50
18412;DHT22;27097;51.738;19.472;2023-07-31T07:57:43;26.40;54.50
18412;DHT22;27097;51.738;19.472;2023-07-31T08:00:13;26.50;54.50
18412;DHT22;27097;51.738;19.472;2023-07-31T08:02:40;26.50;54.60
18412;DHT22;27097;51.738;19.472;2023-07-31T08:05:07;26.50;54.50
18412;DHT22;27097;51.738;19.472;2023-07-31T08:07:35;26.50;54.90
18412;DHT22;27097;51.738;19.472;2023-07-31T08:10:02;26.60;54.20
18412;DHT22;27097;51.738;19.472;2023-07-31T08:12:28;26.60;54.00
18412;DHT22;27097;51.738;19.472;2023-07-31T08:14:55;26.60;54.20
18412;DHT22;27097;51.738;19.472;2023-07-31T08:17:24;26.60;54.00
18412;DHT22;27097;51.738;19.472;2023-07-31T08:19:51;26.60;53.70
18412;DHT22;27097;51.738;19.472;2023-07-31T08:22:17;26.60;53.50
18412;DHT22;27097;51.738;19.472;2023-07-31T08:24:44;26.60;54.00
18412;DHT22;27097;51.738;19.472;2023-07-31T08:27:11;26.60;54.00
18412;DHT22;27097;51.738;19.472;2023-07-31T08:29:38;26.60;54.00
18412;DHT22;27097;51.738;19.472;2023-07-31T08:32:06;26.60;53.10
18412;DHT22;27097;51.738;19.472;2023-07-31T08:34:34;26.60;53.10
18412;DHT22;27097;51.738;19.472;2023-07-31T08:37:01;26.60;52.60
18412;DHT22;27097;51.738;19.472;2023-07-31T08:39:28;26.60;52.30
18412;DHT22;27097;51.738;19.472;2023-07-31T08:41:58;26.60;52.50
18412;DHT22;27097;51.738;19.472;2023-07-31T08:44:25;26.60;52.60
18412;DHT22;27097;51.738;19.472;2023-07-31T08:46:53;26.60;53.10
18412;DHT22;27097;51.738;19.472;2023-07-31T08:49:20;26.60;51.80
18412;DHT22;27097;51.738;19.472;2023-07-31T08:51:50;26.70;52.00
18412;DHT22;27097;51.738;19.472;2023-07-31T08:54:17;26.70;52.20
18412;DHT22;27097;51.738;19.472;2023-07-31T08:56:44;26.70;52.00
18412;DHT22;27097;51.738;19.472;2023-07-31T08:59:12;26.70;51.80
18412;DHT22;27097;51.738;19.472;2023-07-31T09:01:45;26.70;51.70
18412;DHT22;27097;51.738;19.472;2023-07-31T09:04:16;26.80;51.60
18412;DHT22;27097;51.738;19.472;2023-07-31T09:06:46;26.80;51.40
18412;DHT22;27097;51.738;19.472;2023-07-31T09:09:15;26.80;51.50
18412;DHT22;27097;51.738;19.472;2023-07-31T09:11:42;26.80;52.30
18412;DHT22;27097;51.738;19.472;2023-07-31T09:14:10;26.80;51.80
18412;DHT22;27097;51.738;19.472;2023-07-31T09:16:51;26.80;51.80
18412;DHT22;27097;51.738;19.472;2023-07-31T09:19:25;26.90;51.30
18412;DHT22;27097;51.738;19.472;2023-07-31T09:21:52;26.90;51.10
18412;DHT22;27097;51.738;19.472;2023-07-31T09:24:27;26.90;50.60
18412;DHT22;27097;51.738;19.472;2023-07-31T09:26:54;27.00;51.10
18412;DHT22;27097;51.738;19.472;2023-07-31T09:29:22;27.00;51.10
18412;DHT22;27097;51.738;19.472;2023-07-31T09:31:50;27.00;50.40
18412;DHT22;27097;51.738;19.472;2023-07-31T09:34:17;27.00;50.20
18412;DHT22;27097;51.738;19.472;2023-07-31T09:36:45;27.10;50.20
18412;DHT22;27097;51.738;19.472;2023-07-31T09:39:12;27.10;49.70
18412;DHT22;27097;51.738;19.472;2023-07-31T09:41:43;27.10;49.90
18412;DHT22;27097;51.738;19.472;2023-07-31T09:44:10;27.00;49.80
18412;DHT22;27097;51.738;19.472;2023-07-31T09:46:37;27.00;49.90
18412;DHT22;27097;51.738;19.472;2023-07-31T09:49:06;27.00;50.00
18412;DHT22;27097;51.738;19.472;2023-07-31T09:51:34;27.00;50.50
18412;DHT22;27097;51.738;19.472;2023-07-31T09:54:14;27.00;49.80
18412;DHT22;27097;51.738;19.472;2023-07-31T09:56:44;26.90;49.90
18412;DHT22;27097;51.738;19.472;2023-07-31T09:59:12;26.90;50.60
18412;DHT22;27097;51.738;19.472;2023-07-31T10:01:40;26.90;50.00
18412;DHT22;27097;51.738;19.472;2023-07-31T10:04:08;26.90;49.60
18412;DHT22;27097;51.738;19.472;2023-07-31T10:06:36;26.90;50.00
18412;DHT22;27097;51.738;19.472;2023-07-31T10:09:05;26.90;50.00
18412;DHT22;27097;51.738;19.472;2023-07-31T10:11:35;26.90;50.40
18412;DHT22;27097;51.738;19.472;2023-07-31T10:14:07;26.90;50.40
18412;DHT22;27097;51.738;19.472;2023-07-31T10:16:37;26.90;50.70
18412;DHT22;27097;51.738;19.472;2023-07-31T10:19:05;26.90;51.00
18412;DHT22;27097;51.738;19.472;2023-07-31T10:21:33;26.90;50.10
18412;DHT22;27097;51.738;19.472;2023-07-31T10:24:03;27.00;50.90
18412;DHT22;27097;51.738;19.472;2023-07-31T10:26:31;27.00;50.80
18412;DHT22;27097;51.738;19.472;2023-07-31T10:28:59;27.10;50.80
18412;DHT22;27097;51.738;19.472;2023-07-31T10:31:28;27.10;51.10
18412;DHT22;27097;51.738;19.472;2023-07-31T10:33:57;27.10;51.90
18412;DHT22;27097;51.738;19.472;2023-07-31T10:36:24;27.20;51.40
18412;DHT22;27097;51.738;19.472;2023-07-31T10:38:52;27.20;53.40
18412;DHT22;27097;51.738;19.472;2023-07-31T10:41:28;27.30;53.20
18412;DHT22;27097;51.738;19.472;2023-07-31T10:43:57;27.40;51.10
18412;DHT22;27097;51.738;19.472;2023-07-31T10:46:24;27.40;50.70
18412;DHT22;27097;51.738;19.472;2023-07-31T10:49:00;27.50;49.60
18412;DHT22;27097;51.738;19.472;2023-07-31T10:51:32;27.50;49.80
18412;DHT22;27097;51.738;19.472;2023-07-31T10:54:11;27.40;50.20
18412;DHT22;27097;51.738;19.472;2023-07-31T10:56:38;27.40;51.90
18412;DHT22;27097;51.738;19.472;2023-07-31T10:59:05;27.30;51.10
18412;DHT22;27097;51.738;19.472;2023-07-31T11:01:50;27.30;51.60
18412;DHT22;27097;51.738;19.472;2023-07-31T11:04:22;27.20;51.40
18412;DHT22;27097;51.738;19.472;2023-07-31T11:06:56;27.20;51.00
18412;DHT22;27097;51.738;19.472;2023-07-31T11:09:24;27.20;50.80
18412;DHT22;27097;51.738;19.472;2023-07-31T11:11:53;27.20;51.60
18412;DHT22;27097;51.738;19.472;2023-07-31T11:14:21;27.30;50.70
18412;DHT22;27097;51.738;19.472;2023-07-31T11:16:50;27.30;51.80
18412;DHT22;27097;51.738;19.472;2023-07-31T11:19:22;27.40;50.20
18412;DHT22;27097;51.738;19.472;2023-07-31T11:21:50;27.50;50.40
18412;DHT22;27097;51.738;19.472;2023-07-31T11:24:18;27.70;48.60
18412;DHT22;27097;51.738;19.472;2023-07-31T11:26:49;28.00;48.60
18412;DHT22;27097;51.738;19.472;2023-07-31T11:29:17;28.00;48.90
18412;DHT22;27097;51.738;19.472;2023-07-31T11:31:44;28.00;50.10
18412;DHT22;27097;51.738;19.472;2023-07-31T11:34:11;27.90;50.10
18412;DHT22;27097;51.738;19.472;2023-07-31T11:36:39;27.80;50.20
18412;DHT22;27097;51.738;19.472;2023-07-31T11:39:07;27.70;50.20
18412;DHT22;27097;51.738;19.472;2023-07-31T11:41:34;27.60;51.00
18412;DHT22;27097;51.738;19.472;2023-07-31T11:44:01;27.60;50.50
18412;DHT22;27097;51.738;19.472;2023-07-31T11:46:30;27.50;50.60
18412;DHT22;27097;51.738;19.472;2023-07-31T11:48:59;27.40;50.60
18412;DHT22;27097;51.738;19.472;2023-07-31T11:51:27;27.40;49.90
18412;DHT22;27097;51.738;19.472;2023-07-31T11:53:59;27.50;48.60
18412;DHT22;27097;51.738;19.472;2023-07-31T11:56:27;27.60;48.00
18412;DHT22;27097;51.738;19.472;2023-07-31T11:58:57;27.60;47.80
18412;DHT22;27097;51.738;19.472;2023-07-31T12:01:26;27.60;47.60
18412;DHT22;27097;51.738;19.472;2023-07-31T12:03:54;27.60;47.80
18412;DHT22;27097;51.738;19.472;2023-07-31T12:06:21;27.60;47.90
18412;DHT22;27097;51.738;19.472;2023-07-31T12:08:48;27.50;47.70
18412;DHT22;27097;51.738;19.472;2023-07-31T12:11:16;27.40;49.10
18412;DHT22;27097;51.738;19.472;2023-07-31T12:13:44;27.40;47.90
18412;DHT22;27097;51.738;19.472;2023-07-31T12:16:11;27.40;48.20
18412;DHT22;27097;51.738;19.472;2023-07-31T12:18:38;27.30;47.90
18412;DHT22;27097;51.738;19.472;2023-07-31T12:21:06;27.30;47.90
18412;DHT22;27097;51.738;19.472;2023-07-31T12:23:36;27.20;48.10
18412;DHT22;27097;51.738;19.472;2023-07-31T12:26:05;27.20;48.30
18412;DHT22;27097;51.738;19.472;2023-07-31T12:28:37;27.10;48.50
18412;DHT22;27097;51.738;19.472;2023-07-31T12:31:05;27.10;49.10
18412;DHT22;27097;51.738;19.472;2023-07-31T12:33:34;27.10;49.10
18412;DHT22;27097;51.738;19.472;2023-07-31T12:36:03;27.00;49.40
18412;DHT22;27097;51.738;19.472;2023-07-31T12:38:30;27.00;48.80
18412;DHT22;27097;51.738;19.472;2023-07-31T12:40:57;27.00;49.00
18412;DHT22;27097;51.738;19.472;2023-07-31T12:43:24;27.10;50.00
18412;DHT22;27097;51.738;19.472;2023-07-31T12:45:54;27.10;50.50
18412;DHT22;27097;51.738;19.472;2023-07-31T12:48:21;27.10;49.90
18412;DHT22;27097;51.738;19.472;2023-07-31T12:50:48;27.10;49.30
18412;DHT22;27097;51.738;19.472;2023-07-31T12:53:15;27.10;49.40
18412;DHT22;27097;51.738;19.472;2023-07-31T12:55:42;27.10;49.70
18412;DHT22;27097;51.738;19.472;2023-07-31T12:58:09;27.10;49.60
18412;DHT22;27097;51.738;19.472;2023-07-31T13:00:36;27.10;50.00
18412;DHT22;27097;51.738;19.472;2023-07-31T13:03:04;27.10;49.40
18412;DHT22;27097;51.738;19.472;2023-07-31T13:05:31;27.10;49.60
18412;DHT22;27097;51.738;19.472;2023-07-31T13:07:58;27.10;49.90
18412;DHT22;27097;51.738;19.472;2023-07-31T13:10:25;27.10;49.30
18412;DHT22;27097;51.738;19.472;2023-07-31T13:12:54;27.20;50.00
18412;DHT22;27097;51.738;19.472;2023-07-31T13:15:20;27.20;49.90
18412;DHT22;27097;51.738;19.472;2023-07-31T13:17:47;27.20;49.50
18412;DHT22;27097;51.738;19.472;2023-07-31T13:20:15;27.20;50.40
18412;DHT22;27097;51.738;19.472;2023-07-31T13:22:42;27.20;49.50
18412;DHT22;27097;51.738;19.472;2023-07-31T13:25:09;27.20;49.50
18412;DHT22;27097;51.738;19.472;2023-07-31T13:27:36;27.20;50.20
18412;DHT22;27097;51.738;19.472;2023-07-31T13:30:03;27.20;50.00
18412;DHT22;27097;51.738;19.472;2023-07-31T13:32:30;27.20;49.50
18412;DHT22;27097;51.738;19.472;2023-07-31T13:34:57;27.20;49.00
18412;DHT22;27097;51.738;19.472;2023-07-31T13:37:25;27.30;50.10
18412;DHT22;27097;51.738;19.472;2023-07-31T13:39:52;27.20;50.80
18412;DHT22;27097;51.738;19.472;2023-07-31T13:42:19;27.10;49.60
18412;DHT22;27097;51.738;19.472;2023-07-31T13:44:45;27.10;49.70
18412;DHT22;27097;51.738;19.472;2023-07-31T13:47:12;27.20;49.40
18412;DHT22;27097;51.738;19.472;2023-07-31T13:49:40;27.20;49.30
18412;DHT22;27097;51.738;19.472;2023-07-31T13:52:08;27.20;50.20
18412;DHT22;27097;51.738;19.472;2023-07-31T13:54:36;27.20;50.40
18412;DHT22;27097;51.738;19.472;2023-07-31T13:57:04;27.20;49.50
18412;DHT22;27097;51.738;19.472;2023-07-31T13:59:31;27.20;49.60
18412;DHT22;27097;51.738;19.472;2023-07-31T14:01:58;27.20;49.30
18412;DHT22;27097;51.738;19.472;2023-07-31T14:04:24;27.20;49.50
18412;DHT22;27097;51.738;19.472;2023-07-31T14:06:51;27.20;49.60
18412;DHT22;27097;51.738;19.472;2023-07-31T14:09:18;27.20;49.60
18412;DHT22;27097;51.738;19.472;2023-07-31T14:11:46;27.10;49.50
18412;DHT22;27097;51.738;19.472;2023-07-31T14:14:13;27.10;49.30
18412;DHT22;27097;51.738;19.472;2023-07-31T14:16:40;27.10;49.70
18412;DHT22;27097;51.738;19.472;2023-07-31T14:19:06;27.10;51.10
18412;DHT22;27097;51.738;19.472;2023-07-31T14:21:34;27.10;49.70
18412;DHT22;27097;51.738;19.472;2023-07-31T14:24:01;27.10;50.70
18412;DHT22;27097;51.738;19.472;2023-07-31T14:26:28;27.10;50.00
18412;DHT22;27097;51.738;19.472;2023-07-31T14:28:56;27.10;49.80
18412;DHT22;27097;51.738;19.472;2023-07-31T14:31:23;27.10;49.70
18412;DHT22;27097;51.738;19.472;2023-07-31T14:33:50;27.00;50.60
18412;DHT22;27097;51.738;19.472;2023-07-31T14:36:16;27.00;49.90
18412;DHT22;27097;51.738;19.472;2023-07-31T14:38:43;27.00;49.70
18412;DHT22;27097;51.738;19.472;2023-07-31T14:41:10;27.00;50.40
18412;DHT22;27097;51.738;19.472;2023-07-31T14:43:37;27.00;50.20
18412;DHT22;27097;51.738;19.472;2023-07-31T14:46:06;27.00;51.20
18412;DHT22;27097;51.738;19.472;2023-07-31T14:48:33;27.00;51.60
18412;DHT22;27097;51.738;19.472;2023-07-31T14:51:00;27.00;51.80
18412;DHT22;27097;51.738;19.472;2023-07-31T14:53:27;27.00;51.60
18412;DHT22;27097;51.738;19.472;2023-07-31T14:55:54;27.00;51.70
18412;DHT22;27097;51.738;19.472;2023-07-31T14:58:21;27.00;51.60
18412;DHT22;27097;51.738;19.472;2023-07-31T15:00:48;27.00;52.20
18412;DHT22;27097;51.738;19.472;2023-07-31T15:03:16;27.00;51.90
18412;DHT22;27097;51.738;19.472;2023-07-31T15:05:43;27.00;52.70
18412;DHT22;27097;51.738;19.472;2023-07-31T15:08:10;26.90;52.50
18412;DHT22;27097;51.738;19.472;2023-07-31T15:10:37;27.00;52.00
18412;DHT22;27097;51.738;19.472;2023-07-31T15:13:04;27.00;52.20
18412;DHT22;27097;51.738;19.472;2023-07-31T15:15:30;27.00;52.80
18412;DHT22;27097;51.738;19.472;2023-07-31T15:17:57;26.90;52.60